Flight Track Log - Related Links

Times and Time Zones

All times are in EDT time to prevent confusion due to time zone crossing. See the N21234 flight status page for this flight to view local times or setup timezone preferences in your user account.

Time Position Orientation Groundspeed Altitude Reporting Facility
EDT Latitude Longitude Course Direction KTS MPH feet Rate Location/Type
Tue 05:03:54 PM 34.8750 -99.5319 175° South 121 139 2,000  Level Fort Worth Center
Tue 05:04:55 PM 34.8461 -99.5286 175° South 116 133 3,000 992 Climbing Fort Worth Center
Tue 05:05:55 PM 34.8147 -99.5253 175° South 108 124 4,000 931 Climbing Fort Worth Center
Tue 05:06:51 PM 34.7897 -99.5197 170° South 159 183 4,800 983 Climbing Fort Worth Center
Tue 05:07:51 PM 34.7586 -99.5189 179° South 133 153 5,900 1,050 Climbing Fort Worth Center
Tue 05:08:51 PM 34.7253 -99.5131 172° South 127 146 6,900 900 Climbing Fort Worth Center
Tue 05:09:51 PM 34.6961 -99.5072 171° South 122 140 7,700 908 Climbing Fort Worth Center
Tue 05:10:50 PM 34.6608 -99.5014 172° South 122 140 8,700 600 Climbing Fort Worth Center
Tue 05:11:51 PM 34.6211 -99.4978 176° South 132 152 8,900 99 Climbing Fort Worth Center
Tue 05:12:51 PM 34.5753 -99.4942 176° South 152 175 8,900 250 Level Fort Worth Center
Tue 05:13:51 PM 34.5314 -99.4981 184° South 160 184 9,400 550 Climbing Fort Worth Center
Tue 05:14:51 PM 34.4917 -99.5022 185° South 155 178 10,000 650 Climbing Fort Worth Center
Tue 05:15:51 PM 34.4519 -99.5114 191° South 150 173 10,700 700 Climbing Fort Worth Center
Tue 05:16:51 PM 34.4167 -99.5003 165° South 145 167 11,400 750 Climbing Fort Worth Center
Tue 05:17:51 PM 34.3989 -99.4497 113° Southeast 127 146 12,200 800 Climbing Fort Worth Center
Tue 05:18:51 PM 34.3764 -99.4064 122° Southeast 132 152 13,000 400 Climbing Fort Worth Center
Tue 05:19:51 PM 34.3544 -99.3556 118° Southeast 153 176 13,000  Level Fort Worth Center
Tue 05:20:51 PM 34.3258 -99.3044 124° Southeast 171 197 13,000  Level Fort Worth Center
Tue 05:21:51 PM 34.3058 -99.2539 116° Southeast 184 212 13,000  Level Fort Worth Center
Tue 05:22:51 PM 34.2814 -99.2031 120° Southeast 184 212 13,000  Level Fort Worth Center
Tue 05:23:51 PM 34.2553 -99.1447 118° Southeast 184 212 13,000  Level Fort Worth Center
Tue 05:24:51 PM 34.2289 -99.0939 122° Southeast 184 212 13,000  Level Fort Worth Center
Tue 05:25:26 PM 34.2125 -99.0611 121° Southeast 181 208 13,000  Level Fort Worth Center
Tue 05:26:21 PM 34.1903 -99.0153 120° Southeast 183 211 13,000  Level Fort Worth Center
Tue 05:26:51 PM 34.1822 -98.9925 113° Southeast 184 212 13,000  Level Fort Worth Center
Tue 05:27:51 PM 34.1556 -98.9344 119° Southeast 184 212 13,000  Level Fort Worth Center
Tue 05:28:51 PM 34.1356 -98.8789 113° Southeast 184 212 13,000  Level Fort Worth Center
Tue 05:29:51 PM 34.1236 -98.8183 103° East 184 212 13,000  Level Fort Worth Center
Tue 05:31:06 PM 34.0908 -98.7553 122° Southeast 180 207 13,000  Level Fort Worth Center
Tue 05:31:51 PM 34.0747 -98.7222 120° Southeast 178 205 13,000  Level Fort Worth Center
Tue 05:32:51 PM 34.0500 -98.6694 119° Southeast 183 211 13,000  Level Fort Worth Center
Tue 05:33:51 PM 34.0236 -98.6164 121° Southeast 183 211 13,000  Level Fort Worth Center
Tue 05:34:51 PM 33.9969 -98.5683 124° Southeast 172 198 13,000  Level Fort Worth Center
Tue 05:35:51 PM 33.9744 -98.5206 120° Southeast 172 198 13,000  Level Fort Worth Center
Tue 05:36:51 PM 33.9478 -98.4625 119° Southeast 177 204 13,000  Level Fort Worth Center
Tue 05:37:51 PM 33.9231 -98.4147 122° Southeast 172 198 13,000  Level Fort Worth Center
Tue 05:38:51 PM 33.8983 -98.3619 119° Southeast 172 198 13,000  Level Fort Worth Center
Tue 05:39:51 PM 33.8758 -98.3142 120° Southeast 172 198 13,000  Level Fort Worth Center
Tue 05:40:51 PM 33.8492 -98.2639 123° Southeast 177 204 13,000  Level Fort Worth Center
Tue 05:41:51 PM 33.8222 -98.2061 119° Southeast 182 209 13,000  Level Fort Worth Center
Tue 05:42:51 PM 33.7956 -98.1558 123° Southeast 182 209 13,000  Level Fort Worth Center
Tue 05:43:51 PM 33.7708 -98.1031 119° Southeast 182 209 13,000  Level Fort Worth Center
Tue 05:44:51 PM 33.7481 -98.0581 121° Southeast 182 209 13,000 -250 Level Fort Worth Center
Tue 05:45:51 PM 33.7211 -98.0053 122° Southeast 187 215 12,500 -500 Descending Fort Worth Center
Tue 05:46:51 PM 33.6922 -97.9453 120° Southeast 194 223 12,000 -450 Descending Fort Worth Center
Tue 05:47:51 PM 33.6633 -97.8900 122° Southeast 194 223 11,600 -400 Descending Fort Worth Center
Tue 05:48:51 PM 33.6364 -97.8350 120° Southeast 194 223 11,200 -550 Descending Fort Worth Center
Tue 05:49:51 PM 33.6092 -97.7825 122° Southeast 194 223 10,500 -650 Descending Fort Worth Center
Tue 05:50:51 PM 33.5822 -97.7275 120° Southeast 187 215 9,900 -550 Descending Fort Worth Center
Tue 05:51:51 PM 33.5492 -97.6653 123° Southeast 198 228 9,400 -655 Descending Fort Worth Center
Tue 05:52:50 PM 33.5200 -97.6078 121° Southeast 198 228 8,600 -750 Descending Fort Worth Center
Tue 05:53:51 PM 33.4950 -97.5581 121° Southeast 193 222 7,900 -793 Descending Fort Worth Center
Tue 05:54:51 PM 33.4636 -97.4956 121° Southeast 188 216 7,000 -650 Descending Fort Worth Center
Tue 05:55:51 PM 33.4344 -97.4533 130° Southeast 188 216 6,600 -400 Descending Fort Worth Center
Tue 05:56:51 PM 33.4033 -97.4061 128° Southeast 176 203 6,200 -600 Descending Fort Worth Center
Tue 05:57:51 PM 33.4011 -97.3489 93° East 170 196 5,400 -600 Descending Fort Worth Center
Tue 05:58:51 PM 33.4011 -97.2842 90° East 175 201 5,000 -200 Descending Fort Worth Center
Tue 05:59:51 PM 33.4011 -97.2317 90° East 175 201 5,000 -100 Level Fort Worth Center
Tue 06:00:51 PM 33.4050 -97.1672 86° East 175 201 4,800 -350 Descending Fort Worth Center
Tue 06:01:51 PM 33.3986 -97.1147 98° East 181 208 4,300 -550 Descending Fort Worth Center
Tue 06:02:51 PM 33.3861 -97.0503 103° East 181 208 3,700 -500 Descending Fort Worth Center
Tue 06:03:51 PM 33.3733 -96.9981 106° East 181 208 3,300 -353 Descending Fort Worth Center
Tue 06:04:50 PM 33.3628 -96.9358 101° East 181 208 3,000 -150 Descending Fort Worth Center
Tue 06:05:51 PM 33.3542 -96.8886 102° East 170 196 3,000 -34 Level Fort Worth Center
Tue 06:07:44 PM 33.3167 -96.7833 113° Southeast 164 189 2,900 -35 Descending Dallas / Fort Worth TRACON
Tue 06:08:44 PM 33.3000 -96.7500 121° Southeast 162 186 2,900  Level Dallas / Fort Worth TRACON
Tue 06:09:48 PM 33.2667 -96.7000 129° Southeast 165 190 2,900  Level Dallas / Fort Worth TRACON
Tue 06:10:49 PM 33.2333 -96.6500 129° Southeast 161 185 2,900  Level Dallas / Fort Worth TRACON
Tue 06:11:44 PM 33.2167 -96.6167 121° Southeast 157 181 2,900  Level Dallas / Fort Worth TRACON
Tue 06:12:45 PM 33.2000 -96.5667 112° Southeast 158 182 2,900  Level Dallas / Fort Worth TRACON
Tue 06:13:43 PM 33.1667 -96.5333 140° Southeast 165 190 2,900  Level Dallas / Fort Worth TRACON
Tue 06:14:44 PM 33.1167 -96.5167 164° South 162 186 2,900 -240 Level Dallas / Fort Worth TRACON
Tue 06:15:48 PM 33.0667 -96.5167 180° South 179 206 2,400 -432 Descending Dallas / Fort Worth TRACON
Tue 06:16:49 PM 33.0167 -96.5167 180° South 183 211 2,000 -248 Descending Dallas / Fort Worth TRACON
Tue 06:17:49 PM 32.9667 -96.5167 180° South 157 181 1,900 -100 Descending Dallas / Fort Worth TRACON

Login

Don't have an account? Register now (free) for customized features, flight alerts, and more!